MAPA DE AEROPUERTO

INFORMACIÓN METAR y TAF

METAR FOR LEBL
ADDS - METARS form results

(0713 UTC 15 July 2020)
Data provider http://aviationweather.gov/metar/data/
 
METAR text: LEBL 150700Z 32008KT 9999 SCT025 22/15 Q1016 NOSIG
Conditions at: LEBL (BARCELONA AIRPOR, ES) observed 0700 UTC 15 July 2020
Temperature: 22.0°C (72°F)
Dewpoint: 15.0°C (59°F) [RH = 65%]
Pressure (altimeter): 30.00 inches Hg (1016.0 mb)
Winds: from the NW (320 degrees) at 9 MPH (8 knots; 4.1 m/s)
Visibility: 6 or more miles (10+ km)
Ceiling: at least 12,000 feet AGL
Clouds: scattered clouds at 2500 feet AGL
Weather: no significant weather observed at this time

METAR text: LEBL 150630Z 32009KT 9999 SCT025 21/15 Q1016 NOSIG
Conditions at: LEBL (BARCELONA AIRPOR, ES) observed 0630 UTC 15 July 2020
Temperature: 21.0°C (70°F)
Dewpoint: 15.0°C (59°F) [RH = 69%]
Pressure (altimeter): 30.00 inches Hg (1016.0 mb)
Winds: from the NW (320 degrees) at 10 MPH (9 knots; 4.6 m/s)
Visibility: 6 or more miles (10+ km)
Ceiling: at least 12,000 feet AGL
Clouds: scattered clouds at 2500 feet AGL
Weather: no significant weather observed at this time

Forecast for: LEBL (BARCELONA AIRPOR, ES)
Text: TAF LEBL 150500Z 1506/1606 34008KT 9999 FEW030 TX28/1512Z TN22/1506Z
Forecast period: 0600 to 0700 UTC 15 July 2020
Forecast type: FROM: standard forecast or significant change
Winds: from the NNW (340 degrees) at 9 MPH (8 knots; 4.1 m/s)
Visibility: 6 or more miles 10+ km)
Ceiling: at least 12,000 feet AGL
Clouds: few clouds at 3000 feet AGL
Weather: no significant weather forecast for this period
Text: BECMG 1507/1509 22010KT
Forecast period: 0700 to 1600 UTC 15 July 2020
Forecast type: BECOMING: Conditions expected to become as follows by 0900 UTC 15 July 2020
Winds: from the SW (220 degrees) at 12 MPH (10 knots; 5.1 m/s)
Visibility: 6 or more miles 10+ km)
Ceiling: at least 12,000 feet AGL
Clouds: few clouds at 3000 feet AGL
Weather: no significant weather forecast for this period
Text: BECMG 1516/1518 09010KT
Forecast period: 1600 UTC 15 July 2020 to 0000 UTC 16 July 2020
Forecast type: BECOMING: Conditions expected to become as follows by 1800 UTC 15 July 2020
Winds: from the E (90 degrees) at 12 MPH (10 knots; 5.1 m/s)
Visibility: 6 or more miles 10+ km)
Ceiling: at least 12,000 feet AGL
Clouds: few clouds at 3000 feet AGL
Weather: no significant weather forecast for this period
Text: BECMG 1600/1602 34005KT
Forecast period: 0000 to 0600 UTC 16 July 2020
Forecast type: BECOMING: Conditions expected to become as follows by 0200 UTC 16 July 2020
Winds: from the NNW (340 degrees) at 6 MPH (5 knots; 2.6 m/s)
Visibility: 6 or more miles 10+ km)
Ceiling: at least 12,000 feet AGL
Clouds: few clouds at 3000 feet AGL
Weather: no significant weather forecast for this period